Eko 4 — SVAR8 — position and weather

sailwx.info

Track history (hours):
 
Tides and Currents Weather Stations Pressure Air Temp Water Temp Dewpoint Dewpoint Depression Visibility Wind Speed Wind Dir Waves Ship Positions

Eko 4

Last reported at 2016-Sep-28 08:33 UTC. Time now 2016-Sep-28 13:41 UTC.
Position N 37°52' E 023°36'.

Length 88 m; draft 5 m.

Type: Ship (hazmat cat A). MMSI: 240912000.

Date/timePositionNaut miles runAvg speedWind from/ knotsBaromVisibWave heightAir tempDewpointWater temp
2016-Sep-28 08:33N 37°52' E 023°36'10 1.9
2016-Sep-28 03:30N 38°02' E 023°33'0 0.0
2016-Sep-28 02:33N 38°02' E 023°33'0 0.0
2016-Sep-28 01:33N 38°02' E 023°33'0 0.0
2016-Sep-27 23:33N 38°02' E 023°33'0 0.0
2016-Sep-27 00:21N 38°01' E 023°33'0 0.0
2016-Sep-26 20:21N 38°01' E 023°32'0 0.0
2016-Sep-26 19:30N 38°01' E 023°32'0 0.0
2016-Sep-26 15:33N 38°01' E 023°32'4 1.8
2016-Sep-26 13:33N 37°58' E 023°33'15 7.7
2016-Sep-26 11:33N 37°45' E 023°43'  
2016-Sep-22 20:33N 37°38' E 023°45'19 2.4
2016-Sep-22 12:32N 37°55' E 023°33'0 0.0
2016-Sep-22 04:32N 37°55' E 023°33'0 0.0
2016-Sep-22 03:32N 37°55' E 023°33'0 0.0
2016-Sep-22 00:32N 37°55' E 023°33'0 0.1
2016-Sep-21 23:32N 37°55' E 023°33'3 3.3
2016-Sep-21 22:34N 37°53' E 023°30'8 0.3
2016-Sep-20 17:33N 37°51' E 023°20'21 7.1
2016-Sep-20 14:33N 37°42' E 023°44'  
Track history (hours):
 
Tides and Currents Weather Stations Pressure Air Temp Water Temp Dewpoint Dewpoint Depression Visibility Wind Speed Wind Dir Waves Ship Positions

Eko 4

Last reported at 2016-Sep-28 08:33 UTC. Time now 2016-Sep-28 13:41 UTC.
Position N 37°52' E 023°36'.

Length 88 m; draft 5 m.

Type: Ship (hazmat cat A). MMSI: 240912000.

Date/timePositionNaut miles runAvg speedWind from/ knotsBaromVisibWave heightAir tempDewpointWater temp
2016-Sep-28 08:33N 37°52' E 023°36'10 1.9
2016-Sep-28 03:30N 38°02' E 023°33'0 0.0
2016-Sep-28 02:33N 38°02' E 023°33'0 0.0
2016-Sep-28 01:33N 38°02' E 023°33'0 0.0
2016-Sep-27 23:33N 38°02' E 023°33'0 0.0
2016-Sep-27 00:21N 38°01' E 023°33'0 0.0
2016-Sep-26 20:21N 38°01' E 023°32'0 0.0
2016-Sep-26 19:30N 38°01' E 023°32'0 0.0
2016-Sep-26 15:33N 38°01' E 023°32'4 1.8
2016-Sep-26 13:33N 37°58' E 023°33'15 7.7
2016-Sep-26 11:33N 37°45' E 023°43'  
2016-Sep-22 20:33N 37°38' E 023°45'19 2.4
2016-Sep-22 12:32N 37°55' E 023°33'0 0.0
2016-Sep-22 04:32N 37°55' E 023°33'0 0.0
2016-Sep-22 03:32N 37°55' E 023°33'0 0.0
2016-Sep-22 00:32N 37°55' E 023°33'0 0.1
2016-Sep-21 23:32N 37°55' E 023°33'3 3.3
2016-Sep-21 22:34N 37°53' E 023°30'8 0.3
2016-Sep-20 17:33N 37°51' E 023°20'21 7.1
2016-Sep-20 14:33N 37°42' E 023°44'  

Dump ship's entire track history